Time;durP1;ratioP1;P1;durP2;ratioP2;P2;SDS_P1;SDS_P2;PMS_P1;PMS_P2;Temp;Humidity;BMP_temperature;BMP_pressure;BME280_temperature;BME280_humidity;BME280_pressure;Samples;Min_cycle;Max_cycle;Signal;HPM_P1;HPM_P2
2022/08/01 00:01:28;;;;;;;13.98;10.68;;;;;;;17.31;100.00;97317.31;5046735;28;20065;-79
2022/08/01 00:06:43;;;;;;;17.35;12.15;;;;;;;17.18;100.00;97285.13;5043788;28;20116;-79
2022/08/01 00:09:42;;;;;;;21.65;12.57;;;;;;;16.84;100.00;97223.53;5027087;28;20497;-81
2022/08/01 00:12:08;;;;;;;20.02;12.50;;;;;;;17.12;100.00;97287.56;5018028;28;20481;-79
2022/08/01 00:14:34;;;;;;;23.38;12.63;;;;;;;16.93;100.00;97265.91;5022253;28;20040;-79
2022/08/01 00:16:59;;;;;;;25.73;13.90;;;;;;;17.22;100.00;97307.34;5039956;28;20479;-79
2022/08/01 00:19:25;;;;;;;20.38;12.93;;;;;;;16.99;100.00;97263.50;5031691;28;20400;-79
2022/08/01 00:21:50;;;;;;;16.27;12.52;;;;;;;17.14;100.00;97278.28;5041061;28;20395;-79
2022/08/01 00:24:16;;;;;;;16.15;11.90;;;;;;;17.01;100.00;97279.59;5016390;28;20025;-79
2022/08/01 00:26:41;;;;;;;19.58;12.48;;;;;;;16.82;100.00;97247.16;5039959;28;20032;-79
2022/08/01 00:29:07;;;;;;;18.20;12.73;;;;;;;16.92;100.00;97269.63;5032580;28;20074;-79
2022/08/01 00:31:33;;;;;;;17.83;13.35;;;;;;;16.96;100.00;97280.00;5032456;28;20033;-78
2022/08/01 00:33:58;;;;;;;17.50;12.83;;;;;;;16.87;100.00;97274.59;5034047;28;20415;-78
2022/08/01 00:36:24;;;;;;;18.17;12.40;;;;;;;16.89;100.00;97272.63;5023099;28;20048;-79
2022/08/01 00:38:50;;;;;;;18.67;12.02;;;;;;;16.80;100.00;97258.94;5032035;28;20040;-80
2022/08/01 00:41:15;;;;;;;19.65;12.50;;;;;;;16.84;100.00;97270.31;5031566;28;20021;-79
2022/08/01 00:43:41;;;;;;;15.10;12.40;;;;;;;16.69;100.00;97240.16;5023134;28;20031;-79
2022/08/01 00:46:06;;;;;;;19.67;13.07;;;;;;;16.85;100.00;97249.56;5032069;28;20029;-79
2022/08/01 00:48:32;;;;;;;15.20;11.98;;;;;;;16.92;100.00;97262.34;5024318;28;20029;-79
2022/08/01 00:50:58;;;;;;;16.85;12.65;;;;;;;16.91;100.00;97265.22;5016057;27;20033;-79
2022/08/01 00:53:24;;;;;;;14.50;10.95;;;;;;;16.93;100.00;97258.66;5029016;28;20036;-79
2022/08/01 00:55:50;;;;;;;14.80;11.05;;;;;;;16.93;100.00;97249.69;5020336;28;20553;-79
2022/08/01 00:58:16;;;;;;;16.13;9.90;;;;;;;17.02;100.00;97248.84;5028621;28;20017;-79
2022/08/01 01:00:42;;;;;;;10.98;9.10;;;;;;;16.84;100.00;97210.03;5038612;28;20017;-79
2022/08/01 01:03:08;;;;;;;10.40;9.23;;;;;;;17.06;100.00;97225.97;5018373;28;20132;-79
2022/08/01 01:05:40;;;;;;;11.25;9.07;;;;;;;16.96;100.00;97195.38;5021288;28;20108;-79
2022/08/01 01:08:15;;;;;;;13.60;10.43;;;;;;;17.12;100.00;97230.78;5046969;28;20511;-79
2022/08/01 01:10:55;;;;;;;14.65;10.80;;;;;;;17.04;100.00;97214.44;5026081;28;20040;-79
2022/08/01 01:13:54;;;;;;;13.60;10.13;;;;;;;16.95;100.00;97224.25;5024351;28;20079;-79
2022/08/01 01:16:20;;;;;;;15.23;10.68;;;;;;;16.99;100.00;97239.19;5026460;28;20037;-78
2022/08/01 01:18:56;;;;;;;19.42;12.13;;;;;;;16.87;100.00;97223.25;5013711;28;20033;-78
2022/08/01 01:21:31;;;;;;;15.85;11.20;;;;;;;16.91;100.00;97238.19;5028680;28;20029;-78
2022/08/01 01:24:25;;;;;;;14.95;11.68;;;;;;;16.89;100.00;97223.97;5044919;28;20072;-79
2022/08/01 01:27:01;;;;;;;15.32;10.88;;;;;;;16.85;100.00;97230.66;5041396;28;20067;-78
2022/08/01 01:29:40;;;;;;;17.55;11.23;;;;;;;16.62;100.00;97195.81;5023720;28;20029;-78
2022/08/01 01:32:20;;;;;;;14.02;11.10;;;;;;;16.80;100.00;97225.66;5017103;28;20045;-78
2022/08/01 01:34:48;;;;;;;13.88;10.60;;;;;;;16.65;100.00;97203.63;5017172;28;20338;-78
2022/08/01 01:37:19;;;;;;;14.20;11.30;;;;;;;16.72;100.00;97228.22;5041929;28;20029;-78
2022/08/01 01:39:46;;;;;;;16.75;11.43;;;;;;;16.48;100.00;97192.63;5011709;28;20074;-78
2022/08/01 01:42:12;;;;;;;21.02;12.25;;;;;;;16.64;100.00;97203.78;5041906;28;20025;-78
2022/08/01 01:44:38;;;;;;;17.63;11.18;;;;;;;16.60;100.00;97205.03;5011634;28;20021;-78
2022/08/01 01:47:04;;;;;;;16.90;11.90;;;;;;;16.59;100.00;97195.22;5025704;28;20063;-78
2022/08/01 01:49:30;;;;;;;20.02;11.68;;;;;;;16.56;100.00;97196.38;5045469;28;20081;-78
2022/08/01 01:51:57;;;;;;;15.57;11.43;;;;;;;16.60;100.00;97213.16;5023119;28;20385;-78
2022/08/01 01:54:25;;;;;;;15.55;11.60;;;;;;;16.69;100.00;97213.16;5017487;28;20029;-78
2022/08/01 01:56:52;;;;;;;19.33;12.93;;;;;;;16.55;100.00;97202.75;5038359;28;20556;-78
2022/08/01 01:59:33;;;;;;;21.13;12.98;;;;;;;16.18;100.00;97136.91;5016544;28;20030;-80
2022/08/01 02:02:05;;;;;;;16.55;12.00;;;;;;;16.16;100.00;97134.34;5006070;28;20048;-80
2022/08/01 02:04:34;;;;;;;16.65;11.50;;;;;;;16.23;100.00;97161.63;5018448;28;20531;-79
2022/08/01 02:07:24;;;;;;;16.80;12.68;;;;;;;16.35;100.00;97206.38;5053551;28;20090;-79
2022/08/01 02:09:51;;;;;;;23.30;15.07;;;;;;;16.27;100.00;97190.03;5020096;28;20036;-77
2022/08/01 02:12:17;;;;;;;21.35;12.13;;;;;;;16.16;100.00;97188.31;5018752;28;20025;-78
2022/08/01 02:14:44;;;;;;;15.65;11.88;;;;;;;16.19;100.00;97181.78;5035202;28;20077;-78
2022/08/01 02:17:11;;;;;;;15.68;11.48;;;;;;;16.01;100.00;97165.41;5031034;28;20468;-78
2022/08/01 02:19:37;;;;;;;16.45;12.02;;;;;;;16.17;100.00;97186.47;5023858;28;20474;-78
2022/08/01 02:22:11;;;;;;;17.25;11.55;;;;;;;16.14;100.00;97186.75;5010734;28;20034;-78
2022/08/01 02:24:57;;;;;;;14.65;11.30;;;;;;;16.15;100.00;97200.06;5017696;28;20506;-79
2022/08/01 02:27:30;;;;;;;17.25;11.60;;;;;;;16.04;100.00;97194.81;5046687;28;20029;-78
2022/08/01 02:30:02;;;;;;;18.88;12.00;;;;;;;15.83;100.00;97190.47;5013201;28;20163;-78
2022/08/01 02:32:32;;;;;;;18.57;10.43;;;;;;;15.85;100.00;97194.72;5012244;28;20045;-78
2022/08/01 02:35:00;;;;;;;16.20;11.68;;;;;;;15.86;100.00;97190.19;5030860;28;20058;-78
2022/08/01 02:37:27;;;;;;;18.08;11.77;;;;;;;15.86;100.00;97190.19;5039844;28;20082;-78
2022/08/01 02:39:53;;;;;;;14.20;11.43;;;;;;;15.91;100.00;97196.03;5010877;28;20097;-78
2022/08/01 02:42:19;;;;;;;22.77;12.60;;;;;;;15.76;100.00;97178.50;5029367;28;20033;-78
2022/08/01 02:44:46;;;;;;;16.38;11.48;;;;;;;15.82;100.00;97188.75;5023708;28;20177;-78
2022/08/01 02:47:12;;;;;;;18.75;11.57;;;;;;;15.64;100.00;97159.75;5020732;28;20034;-78
2022/08/01 02:49:48;;;;;;;21.42;12.20;;;;;;;15.72;100.00;97177.91;5033930;28;20029;-78
2022/08/01 02:52:16;;;;;;;15.20;11.20;;;;;;;15.72;100.00;97168.00;5028200;28;20056;-78
2022/08/01 02:54:43;;;;;;;17.13;11.15;;;;;;;15.63;100.00;97152.63;5010359;28;20022;-78
2022/08/01 02:57:10;;;;;;;21.80;11.68;;;;;;;15.60;100.00;97158.28;5035401;28;20385;-78
2022/08/01 02:59:37;;;;;;;22.23;11.70;;;;;;;15.52;100.00;97155.44;5030273;28;20027;-78
2022/08/01 03:02:04;;;;;;;15.07;10.57;;;;;;;15.57;100.00;97174.75;5030002;28;20523;-78
2022/08/01 03:04:32;;;;;;;18.30;12.07;;;;;;;15.57;100.00;97174.75;5030023;28;20025;-78
2022/08/01 03:06:58;;;;;;;20.90;11.50;;;;;;;15.50;100.00;97178.13;5046454;28;20449;-78
2022/08/01 03:09:26;;;;;;;33.70;14.63;;;;;;;15.53;100.00;97191.34;5044153;28;20032;-78
2022/08/01 03:11:52;;;;;;;21.98;13.02;;;;;;;15.35;100.00;97163.25;5035353;28;20511;-77
2022/08/01 03:14:20;;;;;;;16.40;11.75;;;;;;;15.41;100.00;97173.50;5029882;28;20495;-79
2022/08/01 03:16:46;;;;;;;21.65;12.55;;;;;;;15.22;100.00;97158.09;5023757;28;20093;-78
2022/08/01 03:19:12;;;;;;;19.30;13.27;;;;;;;15.33;100.00;97165.22;5010500;28;20041;-79
2022/08/01 03:21:39;;;;;;;14.50;11.57;;;;;;;15.27;100.00;97152.28;5029923;28;20109;-78
2022/08/01 03:24:05;;;;;;;12.80;10.35;;;;;;;15.26;100.00;97147.91;5029811;28;20089;-78
2022/08/01 03:26:41;;;;;;;16.20;9.85;;;;;;;15.38;100.00;97171.06;5011972;28;20100;-78
2022/08/01 03:29:10;;;;;;;13.48;9.50;;;;;;;15.31;100.00;97165.38;5026563;28;20064;-78
2022/08/01 03:31:42;;;;;;;13.02;9.32;;;;;;;15.06;100.00;97122.66;5031015;28;20028;-78
2022/08/01 03:34:08;;;;;;;18.05;9.60;;;;;;;15.27;100.00;97171.13;5023165;28;20098;-78
2022/08/01 03:36:45;;;;;;;12.10;8.90;;;;;;;15.22;100.00;97152.69;5021465;28;20041;-78
2022/08/01 03:39:11;;;;;;;10.40;8.02;;;;;;;15.31;100.00;97146.50;5021347;28;20114;-78
2022/08/01 03:41:39;;;;;;;11.35;8.63;;;;;;;15.43;100.00;97169.69;5033476;28;20419;-78
2022/08/01 03:44:08;;;;;;;12.07;9.55;;;;;;;15.36;100.00;97151.47;5018151;28;20025;-78
2022/08/01 03:46:50;;;;;;;19.98;8.85;;;;;;;15.49;100.00;97165.63;5028611;28;20026;-78
2022/08/01 03:49:18;;;;;;;15.40;9.82;;;;;;;15.37;100.00;97137.88;5029369;28;20059;-78
2022/08/01 03:51:45;;;;;;;14.70;9.05;;;;;;;15.60;100.00;97177.16;5024388;28;20052;-78
2022/08/01 03:54:12;;;;;;;16.92;9.77;;;;;;;15.64;100.00;97169.66;5041384;28;20457;-79
2022/08/01 03:56:38;;;;;;;14.70;9.10;;;;;;;15.53;100.00;97142.81;5009582;28;20025;-79
2022/08/01 03:59:05;;;;;;;12.98;8.82;;;;;;;15.65;100.00;97150.66;5015864;28;20029;-78
2022/08/01 04:01:32;;;;;;;21.15;9.05;;;;;;;15.78;100.00;97154.97;5027789;28;20037;-78
2022/08/01 04:04:01;;;;;;;17.92;8.90;;;;;;;15.93;100.00;97191.38;5023139;28;20128;-78
2022/08/01 04:06:27;;;;;;;13.40;8.43;;;;;;;15.76;100.00;97156.94;5012739;28;20038;-78
2022/08/01 04:08:55;;;;;;;13.18;8.40;;;;;;;15.94;100.00;97168.78;5025291;28;20040;-78
2022/08/01 04:11:25;;;;;;;11.15;8.35;;;;;;;16.13;100.00;97185.03;5026183;28;20105;-78
2022/08/01 04:13:54;;;;;;;17.95;11.05;;;;;;;16.15;100.00;97169.56;5017188;28;20033;-78
2022/08/01 04:16:21;;;;;;;12.55;8.65;;;;;;;16.13;100.00;97142.69;5022203;28;20484;-78
2022/08/01 04:18:47;;;;;;;13.65;8.25;;;;;;;16.28;100.00;97167.44;5028986;28;20041;-78
2022/08/01 04:21:13;;;;;;;13.05;8.10;;;;;;;16.37;100.00;97154.94;5017012;28;20093;-78
2022/08/01 04:23:41;;;;;;;12.43;7.70;;;;;;;16.34;100.00;97139.88;5018804;28;20425;-77
2022/08/01 04:26:09;;;;;;;8.77;7.13;;;;;;;16.61;100.00;97171.66;5013464;28;20033;-78
2022/08/01 04:28:36;;;;;;;16.20;7.30;;;;;;;16.37;100.00;97150.41;5014549;28;20029;-78
2022/08/01 04:31:02;;;;;;;15.48;6.80;;;;;;;16.70;100.00;97147.31;5043574;28;20111;-78
2022/08/01 04:33:29;;;;;;;9.82;7.55;;;;;;;18.21;100.00;97147.19;5023687;28;20033;-78
2022/08/01 04:35:56;;;;;;;13.00;7.65;;;;;;;19.53;100.00;97139.94;5012664;28;20038;-78
2022/08/01 04:38:27;;;;;;;10.98;6.00;;;;;;;19.31;95.82;97132.28;5029181;28;20133;-77
2022/08/01 04:40:52;;;;;;;10.20;6.25;;;;;;;18.65;100.00;97137.31;5029345;28;20503;-78
2022/08/01 04:43:18;;;;;;;10.00;6.50;;;;;;;18.31;100.00;97139.81;5018026;28;20048;-79
2022/08/01 04:45:45;;;;;;;21.35;7.70;;;;;;;18.35;100.00;97179.16;5012600;28;20412;-78
2022/08/01 04:48:11;;;;;;;13.23;7.03;;;;;;;18.33;100.00;97173.03;5028986;28;20037;-79
2022/08/01 04:50:37;;;;;;;22.90;7.80;;;;;;;18.27;100.00;97169.06;5034514;28;20480;-81
2022/08/01 04:53:03;;;;;;;23.02;7.47;;;;;;;18.34;100.00;97167.47;5028661;28;20033;-77
2022/08/01 04:55:31;;;;;;;16.65;6.90;;;;;;;18.32;100.00;97180.31;5024440;28;20544;-78
2022/08/01 04:57:56;;;;;;;12.43;7.32;;;;;;;18.04;100.00;97137.16;5025077;28;20492;-78
2022/08/01 05:00:22;;;;;;;23.88;7.03;;;;;;;18.30;100.00;97170.63;5031634;28;20036;-79
2022/08/01 05:02:47;;;;;;;14.52;6.50;;;;;;;18.31;100.00;97161.50;5028140;28;20053;-78
2022/08/01 05:05:13;;;;;;;11.93;6.38;;;;;;;18.35;100.00;97166.47;5026602;28;20058;-79
2022/08/01 05:07:38;;;;;;;9.63;6.03;;;;;;;18.49;100.00;97165.09;5013044;28;20420;-79
2022/08/01 05:10:05;;;;;;;8.95;5.53;;;;;;;18.75;100.00;97159.78;5036272;28;20058;-79
2022/08/01 05:12:31;;;;;;;6.05;4.80;;;;;;;18.88;100.00;97160.25;5024128;28;20029;-79
2022/08/01 05:15:01;;;;;;;10.52;6.13;;;;;;;19.01;96.61;97155.25;5036339;28;20044;-82
2022/08/01 05:17:27;;;;;;;10.73;5.40;;;;;;;19.10;93.99;97148.06;5029248;28;20021;-77
2022/08/01 05:19:52;;;;;;;10.27;5.03;;;;;;;19.26;96.30;97148.16;5047573;28;20468;-81
2022/08/01 05:22:18;;;;;;;9.32;4.60;;;;;;;19.37;94.92;97143.38;5022553;28;20031;-76
2022/08/01 05:24:43;;;;;;;9.70;5.05;;;;;;;19.55;91.43;97151.47;5037930;28;20101;-78
2022/08/01 05:27:09;;;;;;;11.70;5.20;;;;;;;20.05;91.16;97150.72;5040435;28;20029;-77
2022/08/01 05:29:35;;;;;;;9.18;4.65;;;;;;;20.80;88.31;97147.88;5019481;28;20060;-79
2022/08/01 05:32:01;;;;;;;9.07;4.55;;;;;;;22.25;81.41;97159.63;5031707;28;20029;-79
2022/08/01 05:34:27;;;;;;;7.43;4.57;;;;;;;24.51;70.39;97144.88;5027977;28;20078;-77
2022/08/01 05:36:53;;;;;;;10.20;4.80;;;;;;;27.10;59.32;97129.13;5020123;28;20033;-78
2022/08/01 05:39:18;;;;;;;11.35;5.18;;;;;;;29.23;54.79;97139.25;5044925;28;20028;-78
2022/08/01 05:41:44;;;;;;;25.35;5.63;;;;;;;31.16;47.28;97131.41;5018961;28;20117;-78
2022/08/01 05:44:10;;;;;;;12.05;4.63;;;;;;;31.65;43.53;97103.44;5036576;28;20569;-78
2022/08/01 05:46:36;;;;;;;9.93;4.75;;;;;;;32.28;40.61;97105.47;5011853;28;20018;-78
2022/08/01 05:49:03;;;;;;;20.70;7.78;;;;;;;33.71;38.72;97108.97;5039055;28;20021;-78
2022/08/01 05:51:29;;;;;;;13.85;5.03;;;;;;;33.06;39.43;97116.03;5025402;28;20480;-78
2022/08/01 05:53:55;;;;;;;20.70;8.23;;;;;;;32.72;40.13;97128.94;5019764;28;20126;-78
2022/08/01 05:56:21;;;;;;;7.82;5.07;;;;;;;34.00;38.44;97133.84;5019798;28;20025;-78
2022/08/01 05:58:48;;;;;;;15.13;4.80;;;;;;;34.67;36.06;97112.41;5022539;28;20044;-78
2022/08/01 06:01:13;;;;;;;21.13;3.28;;;;;;;33.75;35.09;97110.13;5045581;28;20033;-78
2022/08/01 06:03:39;;;;;;;4.85;3.10;;;;;;;33.36;34.89;97111.09;5020320;28;20503;-78
2022/08/01 06:06:04;;;;;;;11.40;4.60;;;;;;;34.97;34.67;97111.94;5023079;28;20448;-78
2022/08/01 06:08:30;;;;;;;9.15;3.47;;;;;;;35.16;30.96;97088.28;5011582;28;20030;-78
2022/08/01 06:10:56;;;;;;;10.02;2.78;;;;;;;34.29;32.44;97088.25;5026117;28;20032;-79
2022/08/01 06:13:22;;;;;;;7.82;2.90;;;;;;;33.85;32.85;97089.19;5018142;28;20086;-78
2022/08/01 06:15:48;;;;;;;3.08;2.20;;;;;;;34.85;31.71;97099.00;5022395;28;20071;-78
2022/08/01 06:18:14;;;;;;;3.67;3.00;;;;;;;35.67;29.53;97090.47;5028392;28;20402;-79
2022/08/01 06:20:40;;;;;;;14.45;3.00;;;;;;;36.08;29.16;97086.09;5025983;28;20484;-79
2022/08/01 06:23:05;;;;;;;7.60;2.47;;;;;;;36.22;29.30;97081.72;5037136;28;20025;-79
2022/08/01 06:25:31;;;;;;;6.65;2.97;;;;;;;35.04;29.95;97095.91;5019903;28;20021;-79
2022/08/01 06:27:57;;;;;;;9.63;3.63;;;;;;;32.52;33.68;97098.81;5024776;28;20029;-78
2022/08/01 06:30:23;;;;;;;7.00;3.35;;;;;;;31.72;35.14;97102.47;5041533;28;20025;-78
2022/08/01 06:32:48;;;;;;;3.88;2.75;;;;;;;29.94;37.13;97112.22;5019027;28;20029;-78
2022/08/01 06:35:15;;;;;;;7.93;2.80;;;;;;;29.25;38.80;97113.22;5024842;28;20055;-79
2022/08/01 06:37:41;;;;;;;8.82;3.00;;;;;;;28.33;40.26;97121.06;5014113;28;20420;-79
2022/08/01 06:40:09;;;;;;;5.05;3.13;;;;;;;27.76;40.72;97133.63;5027545;28;20100;-79
2022/08/01 06:42:35;;;;;;;16.90;3.05;;;;;;;27.28;40.45;97121.97;5027451;28;20032;-78
2022/08/01 06:45:11;;;;;;;4.07;2.47;;;;;;;26.66;43.06;97127.72;5022428;28;20025;-78
2022/08/01 06:47:37;;;;;;;3.70;2.17;;;;;;;26.05;43.75;97132.25;5022349;28;20423;-78
2022/08/01 06:50:05;;;;;;;6.10;2.38;;;;;;;26.00;44.66;97134.72;5035981;28;20037;-79
2022/08/01 06:52:31;;;;;;;6.57;3.05;;;;;;;25.83;45.20;97141.59;5021303;28;20341;-78
2022/08/01 06:54:56;;;;;;;4.63;2.90;;;;;;;25.67;46.48;97142.75;5024988;28;20041;-79
2022/08/01 06:57:22;;;;;;;8.02;3.33;;;;;;;25.72;47.30;97142.97;5019182;28;20040;-79
2022/08/01 06:59:48;;;;;;;5.15;2.90;;;;;;;25.43;46.54;97131.34;5023559;28;20526;-78
2022/08/01 07:02:13;;;;;;;10.63;2.60;;;;;;;25.70;46.71;97138.75;5030175;28;20049;-78
2022/08/01 07:04:39;;;;;;;5.35;2.92;;;;;;;25.85;46.41;97136.75;5027865;28;20129;-78
2022/08/01 07:07:04;;;;;;;4.13;2.63;;;;;;;25.71;45.60;97130.34;5018782;28;20082;-80
2022/08/01 07:09:30;;;;;;;11.18;2.63;;;;;;;25.82;46.70;97142.63;5014998;28;20033;-79
2022/08/01 07:11:56;;;;;;;6.97;3.00;;;;;;;25.97;47.31;97148.00;5025540;28;20044;-79
2022/08/01 07:14:22;;;;;;;4.57;2.65;;;;;;;26.32;45.85;97125.88;5032600;28;20021;-79
2022/08/01 07:16:48;;;;;;;3.10;2.40;;;;;;;26.69;43.61;97118.22;5022336;28;20029;-79
2022/08/01 07:19:14;;;;;;;10.02;2.65;;;;;;;26.69;44.72;97126.44;5016641;28;20030;-78
2022/08/01 07:21:39;;;;;;;10.93;2.60;;;;;;;26.86;43.40;97125.03;5019463;28;20460;-78
2022/08/01 07:24:06;;;;;;;3.33;2.20;;;;;;;26.87;43.08;97118.50;5018909;28;20125;-79
2022/08/01 07:26:32;;;;;;;9.18;3.13;;;;;;;26.98;44.01;97128.06;5012529;28;20029;-79
2022/08/01 07:28:57;;;;;;;6.88;2.85;;;;;;;26.64;43.09;97123.50;5018682;28;20033;-78
2022/08/01 07:31:23;;;;;;;9.27;2.58;;;;;;;26.70;43.96;97130.91;5018408;28;20029;-78
2022/08/01 07:33:50;;;;;;;3.55;2.60;;;;;;;27.04;43.28;97129.97;5018715;28;20029;-78
2022/08/01 07:36:16;;;;;;;17.50;5.07;;;;;;;27.16;44.07;97126.41;5023835;28;20092;-78
2022/08/01 07:38:42;;;;;;;8.80;3.65;;;;;;;27.28;43.75;97127.47;5028720;28;20032;-78
2022/08/01 07:41:07;;;;;;;2.53;2.33;;;;;;;27.26;43.12;97132.31;5030042;28;20033;-79
2022/08/01 07:43:35;;;;;;;5.07;2.40;;;;;;;27.42;42.24;97129.19;5013364;28;20032;-78
2022/08/01 07:46:02;;;;;;;4.28;2.78;;;;;;;27.06;43.00;97109.47;5013266;28;20128;-79
2022/08/01 07:48:27;;;;;;;6.18;2.85;;;;;;;26.86;42.58;97122.28;5034635;28;20018;-79
2022/08/01 07:50:53;;;;;;;3.20;2.85;;;;;;;26.70;43.92;97114.44;5023792;28;20025;-78
2022/08/01 07:53:19;;;;;;;3.85;2.80;;;;;;;26.92;44.52;97136.03;5022075;28;20025;-79
2022/08/01 07:55:44;;;;;;;5.63;2.55;;;;;;;26.83;42.61;97130.94;5016748;28;20504;-79
2022/08/01 07:58:10;;;;;;;3.53;2.50;;;;;;;26.62;43.14;97136.56;5023886;28;20483;-78
2022/08/01 08:00:35;;;;;;;3.13;2.15;;;;;;;26.69;43.46;97131.94;5023676;28;20067;-78
2022/08/01 08:03:01;;;;;;;2.85;2.50;;;;;;;26.78;42.63;97137.03;5013971;28;20060;-78
2022/08/01 08:05:27;;;;;;;6.95;3.63;;;;;;;26.95;43.30;97139.44;5023747;28;20021;-79
2022/08/01 08:07:52;;;;;;;8.07;3.95;;;;;;;27.10;43.94;97145.59;5021694;28;20053;-79
2022/08/01 08:10:18;;;;;;;4.20;2.72;;;;;;;27.11;41.80;97134.41;5018603;28;20040;-79
2022/08/01 08:12:45;;;;;;;7.32;2.38;;;;;;;27.17;41.79;97124.47;5020261;28;20029;-79
2022/08/01 08:15:12;;;;;;;20.73;10.55;;;;;;;27.44;40.40;97128.97;5041565;28;20021;-78
2022/08/01 08:17:37;;;;;;;3.03;2.70;;;;;;;27.36;41.21;97098.94;5049374;28;20024;-78
2022/08/01 08:20:07;;;;;;;6.65;3.20;;;;;;;27.89;40.95;97108.00;5037696;28;20030;-79
2022/08/01 08:22:33;;;;;;;8.20;2.40;;;;;;;29.70;37.65;97118.56;5037483;28;20025;-79
2022/08/01 08:24:59;;;;;;;4.78;2.17;;;;;;;30.60;35.30;97118.75;5029844;28;20026;-79
2022/08/01 08:27:25;;;;;;;7.43;2.63;;;;;;;30.65;35.56;97118.03;5019547;28;20028;-79
2022/08/01 08:29:51;;;;;;;3.70;2.20;;;;;;;30.53;35.22;97114.38;5044804;28;20389;-78
2022/08/01 08:32:16;;;;;;;6.00;3.35;;;;;;;30.61;36.34;97114.88;5037820;28;20082;-78
2022/08/01 08:34:42;;;;;;;7.43;2.25;;;;;;;30.94;34.21;97113.63;5023704;28;20109;-80
2022/08/01 08:37:08;;;;;;;2.42;1.90;;;;;;;30.73;33.77;97097.53;5027736;28;20025;-78
2022/08/01 08:39:33;;;;;;;3.60;1.77;;;;;;;30.71;34.39;97111.56;5024391;28;20078;-78
2022/08/01 08:41:59;;;;;;;2.50;2.30;;;;;;;30.14;35.47;97115.63;5024436;28;20052;-78
2022/08/01 08:44:25;;;;;;;4.00;2.10;;;;;;;30.87;34.87;97116.47;5018834;28;20090;-78
2022/08/01 08:46:52;;;;;;;6.35;2.10;;;;;;;31.16;33.51;97112.06;5024435;28;20044;-78
2022/08/01 08:49:23;;;;;;;4.35;2.10;;;;;;;31.83;33.88;97109.94;5046562;28;20040;-78
2022/08/01 08:51:50;;;;;;;2.60;2.08;;;;;;;33.28;30.66;97097.63;5035758;28;20124;-78
2022/08/01 08:54:18;;;;;;;2.28;1.90;;;;;;;35.30;28.99;97092.31;5027067;28;20040;-78
2022/08/01 08:56:44;;;;;;;4.50;2.05;;;;;;;35.58;28.57;97091.22;5029509;28;20146;-79
2022/08/01 08:59:12;;;;;;;3.60;2.10;;;;;;;34.89;29.35;97090.16;5024587;28;20490;-78
2022/08/01 09:01:38;;;;;;;2.08;1.90;;;;;;;33.47;30.02;97065.78;5024027;28;20120;-79
2022/08/01 09:04:04;;;;;;;6.63;1.88;;;;;;;33.81;29.48;97082.47;5016406;28;20168;-78
2022/08/01 09:06:30;;;;;;;2.05;1.85;;;;;;;35.48;27.67;97066.88;5023946;28;20452;-78
2022/08/01 09:08:57;;;;;;;5.32;2.72;;;;;;;37.00;26.64;97067.91;5032138;28;20492;-79
2022/08/01 09:11:23;;;;;;;3.25;2.25;;;;;;;36.56;26.46;97057.13;5024374;28;20593;-78
2022/08/01 09:14:14;;;;;;;4.22;2.75;;;;;;;36.46;26.38;97065.41;5017636;28;20033;-79
2022/08/01 09:16:43;;;;;;;;;;;;;;;35.20;28.00;97067.16;5016913;28;20037;-78
2022/08/01 09:19:18;;;;;;;4.72;2.45;;;;;;;35.59;27.44;97065.91;5045384;27;19912;-79
2022/08/01 09:22:00;;;;;;;4.68;2.10;;;;;;;36.26;26.60;97059.72;5034411;28;20033;-79
2022/08/01 09:24:27;;;;;;;4.80;2.40;;;;;;;36.80;26.22;97054.69;5013655;28;20028;-79
2022/08/01 09:26:54;;;;;;;4.82;2.17;;;;;;;36.85;25.96;97066.72;5036847;28;20461;-79
2022/08/01 09:29:25;;;;;;;6.28;2.22;;;;;;;37.43;25.38;97054.34;5018955;28;20029;-79
2022/08/01 09:31:51;;;;;;;3.65;2.17;;;;;;;36.87;26.93;97064.50;5040211;28;20032;-78
2022/08/01 09:34:28;;;;;;;6.47;2.20;;;;;;;35.70;27.19;97053.75;5028390;28;20053;-78
2022/08/01 09:37:03;;;;;;;3.65;2.00;;;;;;;35.10;27.32;97055.94;5020791;28;20066;-79
2022/08/01 09:39:36;;;;;;;5.40;2.50;;;;;;;35.09;27.69;97045.91;5042969;28;20111;-80
2022/08/01 09:42:27;;;;;;;2.25;1.92;;;;;;;35.00;27.78;97055.81;5016078;28;20025;-79
2022/08/01 09:44:52;;;;;;;1.95;1.85;;;;;;;36.50;26.06;97032.25;5040363;28;20025;-80
2022/08/01 09:47:23;;;;;;;3.53;1.80;;;;;;;36.96;26.38;97045.28;5042487;28;20510;-80
2022/08/01 09:49:56;;;;;;;1.90;1.75;;;;;;;38.03;24.69;97037.88;5038886;28;20131;-80
2022/08/01 09:52:24;;;;;;;1.50;1.40;;;;;;;36.51;24.97;97032.00;5029038;28;20028;-77
2022/08/01 09:55:01;;;;;;;5.15;2.70;;;;;;;36.99;25.85;97039.19;5021416;28;20493;-79
2022/08/01 09:57:28;;;;;;;5.28;1.90;;;;;;;36.88;24.94;97027.13;5019852;28;20028;-78
2022/08/01 09:59:57;;;;;;;7.55;2.78;;;;;;;36.08;26.31;97035.09;5020754;28;20378;-78
2022/08/01 10:02:32;;;;;;;5.50;2.72;;;;;;;34.67;27.66;97029.03;5019639;28;20129;-77
2022/08/01 10:04:59;;;;;;;2.60;2.13;;;;;;;34.47;28.23;97039.84;5016829;28;20033;-78
2022/08/01 10:07:25;;;;;;;6.05;2.60;;;;;;;33.79;29.53;97041.94;5026171;28;20028;-78
2022/08/01 10:09:51;;;;;;;2.20;1.98;;;;;;;32.98;29.02;97041.59;5036842;28;20030;-78
2022/08/01 10:12:19;;;;;;;2.70;1.95;;;;;;;34.28;27.53;97042.94;5020679;28;20031;-78
2022/08/01 10:14:48;;;;;;;2.60;2.10;;;;;;;34.12;27.65;97034.66;5039778;28;20033;-77
2022/08/01 10:17:17;;;;;;;2.40;1.92;;;;;;;34.85;27.43;97029.47;5021315;28;20097;-77
2022/08/01 10:19:43;;;;;;;8.73;2.05;;;;;;;34.78;27.58;97022.47;5017172;28;20108;-77
2022/08/01 10:22:10;;;;;;;1.60;1.50;;;;;;;34.95;27.01;97011.25;5025920;28;20468;-77
2022/08/01 10:24:38;;;;;;;2.78;1.90;;;;;;;34.26;28.16;97033.19;5018445;28;20038;-77
2022/08/01 10:27:06;;;;;;;1.77;1.67;;;;;;;33.05;30.21;97039.47;5019506;28;20063;-78
2022/08/01 10:29:56;;;;;;;3.97;2.20;;;;;;;32.25;30.35;97024.81;5019287;28;20064;-78
2022/08/01 10:32:22;;;;;;;3.83;2.33;;;;;;;32.09;30.76;97037.50;5027425;28;20429;-78
2022/08/01 10:34:49;;;;;;;5.35;1.90;;;;;;;32.69;30.31;97004.72;5021971;28;20072;-78
2022/08/01 10:37:16;;;;;;;3.55;2.28;;;;;;;33.18;30.10;97025.34;5028945;28;20481;-78
2022/08/01 10:39:42;;;;;;;4.85;1.80;;;;;;;33.24;29.76;97030.72;5025662;28;20033;-78
2022/08/01 10:42:11;;;;;;;1.95;1.75;;;;;;;33.87;29.00;97012.88;5016500;28;20021;-78
2022/08/01 10:44:37;;;;;;;8.45;5.57;;;;;;;35.40;28.41;97025.63;5011101;28;20053;-78
2022/08/01 10:47:08;;;;;;;2.30;1.98;;;;;;;37.32;25.25;97001.53;5021721;28;20048;-79
2022/08/01 10:49:38;;;;;;;2.53;2.13;;;;;;;38.85;23.81;96979.47;5017487;28;20589;-79
2022/08/01 10:52:04;;;;;;;7.50;2.92;;;;;;;39.09;23.03;96992.75;5015069;28;20026;-79
2022/08/01 10:54:38;;;;;;;8.30;3.13;;;;;;;38.57;24.09;96993.28;5035300;28;20029;-78
2022/08/01 10:57:06;;;;;;;3.10;2.15;;;;;;;39.47;22.98;96994.72;5035694;28;20528;-79
2022/08/01 10:59:32;;;;;;;2.05;1.92;;;;;;;40.89;22.31;96992.06;5014848;28;20044;-79
2022/08/01 11:02:04;;;;;;;2.15;1.92;;;;;;;40.87;21.66;96990.72;5030472;28;20045;-79
2022/08/01 11:04:40;;;;;;;4.60;1.85;;;;;;;40.40;21.60;96974.75;5011416;28;20033;-79
2022/08/01 11:07:13;;;;;;;1.88;1.77;;;;;;;40.36;21.59;96970.88;5027227;28;20064;-79
2022/08/01 11:09:44;;;;;;;1.83;1.73;;;;;;;39.82;22.10;96962.75;5030968;28;20448;-79
2022/08/01 11:12:11;;;;;;;;;;;;;;;38.98;22.99;96970.41;5022942;28;20036;-79
2022/08/01 11:15:00;;;;;;;3.65;1.80;;;;;;;39.85;22.36;96962.16;5046843;27;19913;-78
2022/08/01 11:17:41;;;;;;;5.38;2.20;;;;;;;40.76;22.25;96972.34;5026307;28;20131;-78
2022/08/01 11:20:16;;;;;;;2.00;1.83;;;;;;;40.84;21.74;96966.91;5035377;28;20065;-78
2022/08/01 11:22:57;;;;;;;3.38;1.67;;;;;;;40.83;21.63;96978.41;5019386;28;20033;-79
2022/08/01 11:25:23;;;;;;;2.75;2.05;;;;;;;41.78;20.66;96978.94;5027857;28;20104;-79
2022/08/01 11:27:48;;;;;;;2.72;2.00;;;;;;;40.83;21.53;96968.03;5017977;28;20563;-79
2022/08/01 11:30:14;;;;;;;1.80;1.70;;;;;;;41.47;21.36;96969.34;5018788;28;20094;-79
2022/08/01 11:32:48;;;;;;;3.83;2.10;;;;;;;43.53;19.53;96944.50;5029930;28;20437;-79